LGIR/HER METAR and TAF weather

Enter ICAO airport designator
Station Type Date Time Source
LGIR METAR 2021/07/27 22:20 UTC NOAA

LGIR 272220Z 30007KT CAVOK 26/23 Q1013 NOSIG


Station Type Date Time Source
LGIR Decoded METAR 2021/07/27 22:20 UTC NOAA

Heraklion Airport , Greece (LGIR) 35-20N 025-11E 39M
Jul 27, 2021 - 06:20 PM EDT / 2021.07.27 2220 UTC
Wind: from the WNW (300 degrees) at 8 MPH (7 KT):0
Visibility: greater than 7 mile(s):0
Temperature: 78 F (26 C)
Dew Point: 73 F (23 C)
Relative Humidity: 83%
Pressure (altimeter): 29.91 in. Hg (1013 hPa)
ob: LGIR 272220Z 30007KT CAVOK 26/23 Q1013 NOSIG
cycle: 22

Station Type Date Time Source
LGIR TAF 2021/07/27 18:12 UTC NOAA

TAF LGIR 271700Z 2718/2818 28012KT 9999 FEW020
BECMG 2805/2807 34016KT

Example: see airport list